Hoopersville, Maryland
Current Conditions -  °F | °C
As of 2:52 PM on Thursday 23 Oct 2014 (Local Time) from KNHK Reporting Station
Broken Clouds Broken Clouds  
Wind Chill: 65°   Ceiling: 8000
Heat Index: 65°   Visibility: 10mi
Dew Point: 45°   Wind: 21mph
Humidity: 48%   Direction: 310°NW
Pressure: 29.81"   Gusts: 37mph
Location:  38.3287°N, 76.2289°W
Report Text: KNHK 231852Z 31018G32KT 10SM SCT047 BKN080 18/07 A2981 RMK AO2 PK WND 32032/1845 SLP095 T01830072
Loading
Personal Weather Stations






























Interactive Weather Map
Tropical Storm Tracking
New forecast layout! Learn more

10-Day Weather Forecast

Advertisements
Track Severe Weather on mobile